CheckWX is a tool to help pilots better visualize weather data.  It is not intended as a substitute for an official pre-flight weather briefing.

10:44:53 UTC

KJBR TAF
Jonesboro Municipal Airport
Jonesboro, Arkansas, USA
KJBR 180837Z 1809/1906 20012KT P6SM -SHRA VCTS SCT025 OVC050CB TEMPO 1809/1811 4SM -SHRA OVC025 FM181100 20014KT P6SM VCSH OVC018 FM181700 18011G20KT P6SM OVC018 FM182100 34014G22KT 6SM -RA OVC007 FM190200 35012KT P6SM OVC015

Apr-18@
09:00 UTC

Apr-18 @ 09:00 UTC

Apr-18@
11:00 UTC

Apr-18 @ 11:00 UTC

KJBR 180837Z 1809/1906 20012KT P6SM -SHRA VCTS SCT025 OVC050CB
Wind
  • 200° at 12 KTS
Conditions
Light Rain, Area Thunderstorm
Cloud Levels
  • Scattered at 2,500' AGL
  • Overcast at 5,000' AGL

Apr-18@
09:00 UTC

Apr-18 @ 09:00 UTC

Apr-18@
11:00 UTC

Apr-18 @ 11:00 UTC

TEMPO 1809/1811 4SM -SHRA OVC025

Temporary

Temporary Changes expected for less than half the time period

Conditions
Light Rain
Cloud Levels
  • Overcast at 2,500' AGL

Apr-18@
11:00 UTC

Apr-18 @ 11:00 UTC

Apr-18@
17:00 UTC

Apr-18 @ 17:00 UTC

FM181100 20014KT P6SM VCSH OVC018

From

From Standard forecast or significant change

Wind
  • 200° at 14 KTS
Cloud Levels
  • Overcast at 1,800' AGL

Apr-18@
17:00 UTC

Apr-18 @ 17:00 UTC

Apr-18@
21:00 UTC

Apr-18 @ 21:00 UTC

FM181700 18011G20KT P6SM OVC018

From

From Standard forecast or significant change

Wind
  • 180° at 11 KTS
  • {Gusting to 20 KTS
Cloud Levels
  • Overcast at 1,800' AGL

Apr-18@
21:00 UTC

Apr-18 @ 21:00 UTC

Apr-19@
02:00 UTC

Apr-19 @ 02:00 UTC

FM182100 34014G22KT 6SM -RA OVC007

From

From Standard forecast or significant change

Wind
  • 340° at 14 KTS
  • {Gusting to 22 KTS
Conditions
Light Rain
Cloud Levels
  • Overcast at 700' AGL

Apr-19@
02:00 UTC

Apr-19 @ 02:00 UTC

Apr-19@
06:00 UTC

Apr-19 @ 06:00 UTC

FM190200 35012KT P6SM OVC015

From

From Standard forecast or significant change

Wind
  • 350° at 12 KTS
Cloud Levels
  • Overcast at 1,500' AGL